createdAt,value
2017-07-11T00:00:15.263Z,88.5
2017-07-11T00:01:16.916Z,88.2
2017-07-11T00:02:18.577Z,88.3
2017-07-11T00:03:20.255Z,87.4
2017-07-11T00:04:21.994Z,88.2
2017-07-11T00:05:24.634Z,88.6
2017-07-11T00:06:26.916Z,88.7
2017-07-11T00:07:28.527Z,88.3
2017-07-11T00:08:30.167Z,88.9
2017-07-11T00:09:31.943Z,89.4
2017-07-11T00:10:33.840Z,88.8
2017-07-11T00:11:35.619Z,88.3
2017-07-11T00:12:37.621Z,88.7
2017-07-11T00:13:39.340Z,88.1
2017-07-11T00:14:41.144Z,88.5
2017-07-11T00:15:42.771Z,88.1
2017-07-11T00:16:44.413Z,88.3
2017-07-11T00:17:46.719Z,88.5
2017-07-11T00:18:48.393Z,88.7
2017-07-11T00:19:50.058Z,89.1
2017-07-11T00:20:51.864Z,89.8
2017-07-11T00:21:53.522Z,89.4
2017-07-11T00:22:55.258Z,89.8
2017-07-11T00:23:57.047Z,89.3
2017-07-11T00:24:58.864Z,89.4
2017-07-11T00:26:00.474Z,90.2
2017-07-11T00:27:02.358Z,89.7
2017-07-11T00:28:04.086Z,90.6
2017-07-11T00:29:05.804Z,89.7
2017-07-11T00:30:07.438Z,89.5
2017-07-11T00:31:09.080Z,90.0
2017-07-11T00:32:10.819Z,89.0
2017-07-11T00:33:12.561Z,89.4
2017-07-11T00:34:14.259Z,89.8
2017-07-11T00:35:15.992Z,90.2
2017-07-11T00:36:17.691Z,90.1
2017-07-11T00:37:19.437Z,89.7
2017-07-11T00:38:21.183Z,90.3
2017-07-11T00:39:22.820Z,89.9
2017-07-11T00:40:24.592Z,89.5
2017-07-11T00:41:26.505Z,90.1
2017-07-11T00:42:28.441Z,89.7
2017-07-11T00:43:30.159Z,90.6
2017-07-11T00:44:31.906Z,89.4
2017-07-11T00:45:33.597Z,89.3
2017-07-11T00:46:35.231Z,89.3
2017-07-11T00:47:36.871Z,89.8
2017-07-11T00:48:38.527Z,89.4
2017-07-11T00:49:40.162Z,89.8
2017-07-11T00:50:41.868Z,89.6
2017-07-11T00:51:43.532Z,89.7
2017-07-11T00:52:45.187Z,89.7
2017-07-11T00:53:46.951Z,89.5
2017-07-11T00:54:48.640Z,88.9
2017-07-11T00:55:50.730Z,89.1
2017-07-11T00:56:52.242Z,89.1
2017-07-11T00:57:53.877Z,89.7
2017-07-11T00:58:55.649Z,90.1
2017-07-11T00:59:58.105Z,89.8
2017-07-11T01:01:00.479Z,90.4
2017-07-11T01:02:02.163Z,90.4
2017-07-11T01:03:03.795Z,89.9
2017-07-11T01:04:05.424Z,89.9
2017-07-11T01:05:07.110Z,90.2
2017-07-11T01:06:08.750Z,89.6
2017-07-11T01:07:10.438Z,89.5
2017-07-11T01:08:12.136Z,89.8
2017-07-11T01:09:13.779Z,89.7
2017-07-11T01:10:15.428Z,89.8
2017-07-11T01:11:17.076Z,90.1
2017-07-11T01:12:18.996Z,90.0
2017-07-11T01:13:20.644Z,90.9
2017-07-11T01:14:22.347Z,90.6
2017-07-11T01:15:24.708Z,90.0
2017-07-11T01:16:26.519Z,90.1
2017-07-11T01:17:28.184Z,89.8
2017-07-11T01:18:29.885Z,89.5
2017-07-11T01:19:31.551Z,90.2
2017-07-11T01:20:33.197Z,89.6
2017-07-11T01:21:34.850Z,89.4
2017-07-11T01:22:36.557Z,89.4
2017-07-11T01:23:38.247Z,90.0
2017-07-11T01:24:39.887Z,89.5
2017-07-11T01:25:41.541Z,89.4
2017-07-11T01:26:43.187Z,90.0
2017-07-11T01:27:44.811Z,90.2
2017-07-11T01:28:46.591Z,89.9
2017-07-11T01:29:48.379Z,90.8
2017-07-11T01:30:49.969Z,90.5
2017-07-11T01:31:51.750Z,90.7
2017-07-11T01:32:53.667Z,90.7
2017-07-11T01:33:55.331Z,90.7
2017-07-11T01:34:57.220Z,90.7
2017-07-11T01:35:58.851Z,90.6
2017-07-11T01:37:00.489Z,90.4
2017-07-11T01:38:02.208Z,91.1
2017-07-11T01:39:03.815Z,91.1
2017-07-11T01:40:05.467Z,91.2
2017-07-11T01:41:07.170Z,91.5
2017-07-11T01:42:08.826Z,92.0
2017-07-11T01:43:10.466Z,90.9
2017-07-11T01:44:12.210Z,91.4
2017-07-11T01:45:13.867Z,91.3
2017-07-11T01:46:15.500Z,91.1
2017-07-11T01:47:17.177Z,90.6
2017-07-11T01:48:18.833Z,91.0
2017-07-11T01:49:20.461Z,90.4
2017-07-11T01:50:22.166Z,90.7
2017-07-11T01:51:23.836Z,90.5
2017-07-11T01:52:25.467Z,90.5
2017-07-11T01:53:27.567Z,90.3
2017-07-11T01:54:29.403Z,91.3
2017-07-11T01:55:31.111Z,91.5
2017-07-11T01:56:32.750Z,91.7
2017-07-11T01:57:34.391Z,91.9
2017-07-11T01:58:36.079Z,91.6
2017-07-11T01:59:37.718Z,91.9
2017-07-11T02:00:40.306Z,91.6
2017-07-11T02:01:42.009Z,91.5
2017-07-11T02:02:43.853Z,91.9
2017-07-11T02:03:45.479Z,91.7
2017-07-11T02:04:47.296Z,91.7
2017-07-11T02:05:49.060Z,92.1
2017-07-11T02:06:50.737Z,91.5
2017-07-11T02:07:52.369Z,90.8
2017-07-11T02:08:54.092Z,90.4
2017-07-11T02:09:55.757Z,91.1
2017-07-11T02:10:57.438Z,90.9
2017-07-11T02:11:59.178Z,90.9
2017-07-11T02:13:00.816Z,90.9
2017-07-11T02:14:02.445Z,90.7
2017-07-11T02:15:04.155Z,90.5
2017-07-11T02:16:05.811Z,90.9
2017-07-11T02:17:07.480Z,91.8
2017-07-11T02:18:09.223Z,91.6
2017-07-11T02:19:10.853Z,91.2
2017-07-11T02:20:12.492Z,90.6
2017-07-11T02:21:14.151Z,90.7
2017-07-11T02:22:15.845Z,90.7
2017-07-11T02:23:17.481Z,90.9
2017-07-11T02:24:19.227Z,91.6
2017-07-11T02:25:20.858Z,91.5
2017-07-11T02:26:22.638Z,90.9
2017-07-11T02:27:24.405Z,90.6
2017-07-11T02:28:26.045Z,90.7
2017-07-11T02:29:27.722Z,90.6
2017-07-11T02:30:29.373Z,90.6
2017-07-11T02:31:31.010Z,90.4
2017-07-11T02:32:32.639Z,90.3
2017-07-11T02:33:34.396Z,90.4
2017-07-11T02:34:36.025Z,90.1
2017-07-11T02:35:37.673Z,90.2
2017-07-11T02:36:39.798Z,90.4
2017-07-11T02:37:42.245Z,90.3
2017-07-11T02:38:44.456Z,90.3
2017-07-11T02:39:46.296Z,90.5
2017-07-11T02:40:48.596Z,90.7
2017-07-11T02:41:50.171Z,90.4
2017-07-11T02:42:51.851Z,91.2
2017-07-11T02:43:53.546Z,91.8
2017-07-11T02:44:55.226Z,91.1
2017-07-11T02:45:56.854Z,91.4
2017-07-11T02:46:58.951Z,91.3
2017-07-11T02:48:00.578Z,90.7
2017-07-11T02:49:02.279Z,91.0
2017-07-11T02:50:04.101Z,91.1
2017-07-11T02:51:05.989Z,90.7
2017-07-11T02:52:07.700Z,90.9
2017-07-11T02:53:09.492Z,91.1
2017-07-11T02:54:11.126Z,91.5
2017-07-11T02:55:12.793Z,91.1
2017-07-11T02:56:14.538Z,91.3
2017-07-11T02:57:16.325Z,91.0
2017-07-11T02:58:17.946Z,90.1
2017-07-11T02:59:19.741Z,91.1
2017-07-11T03:00:21.399Z,91.6
2017-07-11T03:01:23.030Z,91.5
2017-07-11T03:02:24.788Z,91.6
2017-07-11T03:03:26.482Z,90.7
2017-07-11T03:04:28.134Z,90.5
2017-07-11T03:05:29.806Z,90.8
2017-07-11T03:06:31.680Z,90.4
2017-07-11T03:07:33.329Z,91.4
2017-07-11T03:08:35.098Z,91.5
2017-07-11T03:09:36.762Z,91.3
2017-07-11T03:10:38.420Z,91.9
2017-07-11T03:11:40.131Z,91.6
2017-07-11T03:12:41.814Z,91.5
2017-07-11T03:13:43.459Z,91.4
2017-07-11T03:14:45.113Z,91.5
2017-07-11T03:15:46.773Z,91.2
2017-07-11T03:16:48.462Z,91.4
2017-07-11T03:17:50.103Z,91.8
2017-07-11T03:18:51.751Z,92.1
2017-07-11T03:19:53.391Z,92.2
2017-07-11T03:20:55.199Z,91.5
2017-07-11T03:21:56.838Z,91.8
2017-07-11T03:22:58.471Z,91.6
2017-07-11T03:24:00.145Z,91.8
2017-07-11T03:25:02.302Z,91.8
2017-07-11T03:26:04.677Z,91.6
2017-07-11T03:27:06.336Z,91.8
2017-07-11T03:28:07.983Z,91.6
2017-07-11T03:29:09.669Z,91.6
2017-07-11T03:30:12.109Z,91.8
2017-07-11T03:31:13.869Z,92.0
2017-07-11T03:32:15.500Z,91.6
2017-07-11T03:33:17.176Z,91.8
2017-07-11T03:34:18.890Z,92.1
2017-07-11T03:35:20.549Z,92.3
2017-07-11T03:36:22.226Z,92.4
2017-07-11T03:37:23.985Z,92.1
2017-07-11T03:38:25.592Z,92.0
2017-07-11T03:39:27.229Z,92.1
2017-07-11T03:40:28.896Z,92.0
2017-07-11T03:41:30.561Z,92.0
2017-07-11T03:42:32.270Z,93.0
2017-07-11T03:43:34.006Z,92.3
2017-07-11T03:44:35.627Z,92.2
2017-07-11T03:45:37.283Z,92.1
2017-07-11T03:46:39.044Z,92.2
2017-07-11T03:47:40.690Z,92.5
2017-07-11T03:48:42.346Z,92.0
2017-07-11T03:49:44.111Z,92.0
2017-07-11T03:50:45.790Z,92.7
2017-07-11T03:51:47.442Z,92.6
2017-07-11T03:52:49.114Z,92.6
2017-07-11T03:53:50.767Z,92.4
2017-07-11T03:54:52.433Z,92.2
2017-07-11T03:55:54.287Z,91.8
2017-07-11T03:56:55.934Z,92.3
2017-07-11T03:57:57.574Z,92.3
2017-07-11T03:58:59.408Z,91.9
2017-07-11T04:00:01.048Z,92.1
2017-07-11T04:01:02.711Z,92.3
2017-07-11T04:02:04.466Z,92.2
2017-07-11T04:03:06.098Z,91.8
2017-07-11T04:04:07.765Z,92.2
2017-07-11T04:05:09.582Z,91.9
2017-07-11T04:06:11.237Z,92.6
2017-07-11T04:07:12.926Z,92.7
2017-07-11T04:08:15.257Z,92.6
2017-07-11T04:09:16.889Z,93.0
2017-07-11T04:10:18.540Z,92.6
2017-07-11T04:11:20.196Z,92.5
2017-07-11T04:12:21.826Z,92.8
2017-07-11T04:13:23.514Z,92.7
2017-07-11T04:14:25.180Z,92.8
2017-07-11T04:15:26.912Z,92.7
2017-07-11T04:16:28.562Z,93.3
2017-07-11T04:17:30.234Z,93.1
2017-07-11T04:18:31.963Z,93.3
2017-07-11T04:19:33.555Z,92.7
2017-07-11T04:20:35.194Z,92.2
2017-07-11T04:21:36.860Z,92.6
2017-07-11T04:22:38.548Z,92.6
2017-07-11T04:23:40.230Z,92.6
2017-07-11T04:24:41.866Z,92.2
2017-07-11T04:25:43.517Z,92.0
2017-07-11T04:26:45.167Z,92.2
2017-07-11T04:27:46.817Z,92.0
2017-07-11T04:28:48.671Z,92.1
2017-07-11T04:29:50.340Z,91.7
2017-07-11T04:30:51.988Z,92.0
2017-07-11T04:31:53.759Z,92.0
2017-07-11T04:32:55.348Z,91.6
2017-07-11T04:33:57.005Z,91.3
2017-07-11T04:34:59.411Z,91.2
2017-07-11T04:36:01.050Z,91.4
2017-07-11T04:37:02.685Z,91.3
2017-07-11T04:38:04.409Z,91.6
2017-07-11T04:39:06.071Z,92.3
2017-07-11T04:40:07.693Z,91.7
2017-07-11T04:41:09.480Z,91.4
2017-07-11T04:42:11.131Z,91.7
2017-07-11T04:43:12.768Z,90.9
2017-07-11T04:44:14.457Z,90.6
2017-07-11T04:45:16.108Z,90.3
2017-07-11T04:46:17.759Z,90.6
2017-07-11T04:47:19.497Z,91.0
2017-07-11T04:48:21.172Z,90.3
2017-07-11T04:49:22.829Z,89.8
2017-07-11T04:50:24.566Z,89.6
2017-07-11T04:51:26.218Z,89.5
2017-07-11T04:52:27.860Z,89.8
2017-07-11T04:53:29.623Z,89.4
2017-07-11T04:54:31.255Z,89.5
2017-07-11T04:55:32.895Z,89.2
2017-07-11T04:56:34.656Z,88.2
2017-07-11T04:57:36.298Z,88.5
2017-07-11T04:58:37.976Z,88.4
2017-07-11T04:59:39.763Z,88.5
2017-07-11T05:00:41.446Z,89.1
2017-07-11T05:01:43.231Z,88.6
2017-07-11T05:02:44.978Z,88.3
2017-07-11T05:03:46.668Z,88.3
2017-07-11T05:04:48.312Z,88.2
2017-07-11T05:05:50.037Z,88.0
2017-07-11T05:06:51.701Z,88.2
2017-07-11T05:07:53.357Z,88.2
2017-07-11T05:08:55.053Z,87.8
2017-07-11T05:09:56.690Z,87.9
2017-07-11T05:10:58.359Z,88.2
2017-07-11T05:11:59.971Z,88.0
2017-07-11T05:13:01.610Z,88.0
2017-07-11T05:14:03.270Z,88.1
2017-07-11T05:15:04.982Z,87.7
2017-07-11T05:16:06.733Z,87.2
2017-07-11T05:17:08.379Z,87.9
2017-07-11T05:18:10.082Z,88.2
2017-07-11T05:19:11.749Z,87.8
2017-07-11T05:20:13.407Z,87.7
2017-07-11T05:21:15.105Z,87.7
2017-07-11T05:22:16.749Z,87.6
2017-07-11T05:23:18.393Z,88.4
2017-07-11T05:24:20.082Z,88.3
2017-07-11T05:25:21.751Z,88.2
2017-07-11T05:26:24.429Z,87.9
2017-07-11T05:27:26.107Z,87.6
2017-07-11T05:28:27.770Z,87.6
2017-07-11T05:29:29.550Z,87.2
2017-07-11T05:30:31.189Z,87.5
2017-07-11T05:31:32.829Z,87.1
2017-07-11T05:32:34.508Z,87.3
2017-07-11T05:33:36.156Z,87.1
2017-07-11T05:34:37.788Z,87.1
2017-07-11T05:35:39.466Z,86.8
2017-07-11T05:36:41.106Z,87.1
2017-07-11T05:37:42.774Z,86.6
2017-07-11T05:38:44.534Z,87.0
2017-07-11T05:39:46.215Z,86.5
2017-07-11T05:40:47.852Z,86.3
2017-07-11T05:41:49.613Z,86.3
2017-07-11T05:42:51.259Z,86.7
2017-07-11T05:43:52.915Z,86.2
2017-07-11T05:44:54.580Z,86.2
2017-07-11T05:45:56.470Z,85.4
2017-07-11T05:46:57.846Z,85.6
2017-07-11T05:47:59.544Z,86.4
2017-07-11T05:49:01.181Z,86.4
2017-07-11T05:50:02.821Z,85.5
2017-07-11T05:51:04.513Z,84.9
2017-07-11T05:52:06.162Z,85.3
2017-07-11T05:53:07.832Z,84.9
2017-07-11T05:54:09.487Z,85.8
2017-07-11T05:55:11.149Z,85.5
2017-07-11T05:56:12.841Z,85.2
2017-07-11T05:57:14.508Z,85.2
2017-07-11T05:58:16.161Z,84.8
2017-07-11T05:59:17.799Z,84.5
2017-07-11T06:00:19.452Z,84.5
2017-07-11T06:01:21.141Z,84.5
2017-07-11T06:02:22.789Z,85.2
2017-07-11T06:03:24.492Z,84.6
2017-07-11T06:04:26.201Z,84.2
2017-07-11T06:05:27.835Z,84.4
2017-07-11T06:06:29.577Z,84.6
2017-07-11T06:07:31.272Z,85.1
2017-07-11T06:08:32.918Z,84.1
2017-07-11T06:09:34.720Z,84.7
2017-07-11T06:10:36.417Z,84.8
2017-07-11T06:11:38.097Z,84.6
2017-07-11T06:12:39.856Z,84.4
2017-07-11T06:13:41.504Z,84.1
2017-07-11T06:14:43.188Z,83.5
2017-07-11T06:15:44.903Z,83.5
2017-07-11T06:16:46.767Z,83.1
2017-07-11T06:17:48.484Z,84.5
2017-07-11T06:18:50.165Z,84.3
2017-07-11T06:19:51.799Z,84.3
2017-07-11T06:20:53.462Z,84.6
2017-07-11T06:21:55.158Z,84.7
2017-07-11T06:22:56.824Z,85.7
2017-07-11T06:23:58.520Z,85.7
2017-07-11T06:25:00.263Z,84.8
2017-07-11T06:26:01.980Z,85.3
2017-07-11T06:27:03.705Z,84.5
2017-07-11T06:28:05.460Z,85.1
2017-07-11T06:29:07.209Z,85.7
2017-07-11T06:30:08.931Z,85.3
2017-07-11T06:31:10.620Z,84.9
2017-07-11T06:32:12.269Z,85.7
2017-07-11T06:33:13.985Z,85.7
2017-07-11T06:34:15.716Z,85.8
2017-07-11T06:35:17.345Z,84.9
2017-07-11T06:36:19.121Z,85.0
2017-07-11T06:37:20.848Z,84.3
2017-07-11T06:38:22.510Z,84.6
2017-07-11T06:39:24.420Z,84.8
2017-07-11T06:40:26.121Z,84.9
2017-07-11T06:41:27.850Z,84.9
2017-07-11T06:42:29.716Z,84.6
2017-07-11T06:43:31.405Z,84.5
2017-07-11T06:44:33.055Z,84.1
2017-07-11T06:45:34.727Z,83.7
2017-07-11T06:46:36.446Z,83.6
2017-07-11T06:47:38.118Z,84.5
2017-07-11T06:48:39.825Z,84.9
2017-07-11T06:49:41.563Z,85.0
2017-07-11T06:50:43.221Z,84.6
2017-07-11T06:51:45.075Z,85.3
2017-07-11T06:52:46.762Z,84.8
2017-07-11T06:53:48.417Z,84.3
2017-07-11T06:54:50.123Z,84.5
2017-07-11T06:55:51.832Z,84.5
2017-07-11T06:56:53.638Z,84.2
2017-07-11T06:57:55.278Z,84.6
2017-07-11T06:58:56.930Z,83.9
2017-07-11T06:59:58.802Z,84.1
2017-07-11T07:01:00.545Z,84.0
2017-07-11T07:02:02.184Z,84.0
2017-07-11T07:03:03.894Z,84.3
2017-07-11T07:04:05.555Z,84.4
2017-07-11T07:05:07.200Z,85.1
2017-07-11T07:06:08.889Z,84.1
2017-07-11T07:07:10.600Z,84.2
2017-07-11T07:08:12.386Z,84.4
2017-07-11T07:09:14.108Z,83.8
2017-07-11T07:10:15.753Z,83.8
2017-07-11T07:11:17.498Z,84.4
2017-07-11T07:12:19.256Z,84.8
2017-07-11T07:13:21.832Z,84.8
2017-07-11T07:14:23.619Z,84.9
2017-07-11T07:15:25.270Z,84.6
2017-07-11T07:16:26.854Z,84.6
2017-07-11T07:17:28.598Z,83.7
2017-07-11T07:18:30.219Z,84.0
2017-07-11T07:19:31.889Z,84.5
2017-07-11T07:20:33.615Z,84.9
2017-07-11T07:21:35.410Z,85.1
2017-07-11T07:22:37.073Z,84.8
2017-07-11T07:23:38.856Z,84.9
2017-07-11T07:24:40.515Z,84.3
2017-07-11T07:25:42.178Z,83.8
2017-07-11T07:26:43.997Z,84.5
2017-07-11T07:27:45.697Z,83.8
2017-07-11T07:28:47.405Z,83.5
2017-07-11T07:29:49.122Z,83.6
2017-07-11T07:30:50.814Z,83.8
2017-07-11T07:31:52.542Z,83.2
2017-07-11T07:32:54.318Z,83.5
2017-07-11T07:33:56.034Z,83.1
2017-07-11T07:34:57.858Z,83.6
2017-07-11T07:35:59.592Z,84.9
2017-07-11T07:37:01.353Z,85.8
2017-07-11T07:38:03.059Z,85.6
2017-07-11T07:39:04.879Z,85.4
2017-07-11T07:40:06.716Z,85.8
2017-07-11T07:41:08.345Z,85.6
2017-07-11T07:42:10.075Z,85.3
2017-07-11T07:43:11.744Z,85.5
2017-07-11T07:44:13.436Z,84.8
2017-07-11T07:45:16.647Z,85.0
2017-07-11T07:46:18.443Z,84.5
2017-07-11T07:47:20.144Z,84.1
2017-07-11T07:48:21.844Z,83.8
2017-07-11T07:49:23.534Z,84.0
2017-07-11T07:50:25.347Z,83.9
2017-07-11T07:51:27.054Z,84.6
2017-07-11T07:52:28.838Z,84.5
2017-07-11T07:53:30.572Z,85.3
2017-07-11T07:54:32.227Z,84.9
2017-07-11T07:55:33.908Z,85.7
2017-07-11T07:56:35.577Z,85.5
2017-07-11T07:57:37.260Z,84.9
2017-07-11T07:58:39.090Z,85.7
2017-07-11T07:59:40.808Z,85.5
2017-07-11T08:00:42.514Z,85.8
2017-07-11T08:01:44.416Z,86.3
2017-07-11T08:02:46.089Z,86.0
2017-07-11T08:03:47.779Z,85.8
2017-07-11T08:04:49.625Z,86.3
2017-07-11T08:05:51.358Z,85.7
2017-07-11T08:06:53.014Z,86.2
2017-07-11T08:07:54.781Z,86.3
2017-07-11T08:08:56.448Z,85.8
2017-07-11T08:09:58.151Z,86.3
2017-07-11T08:10:59.906Z,86.5
2017-07-11T08:12:01.564Z,85.5
2017-07-11T08:13:03.276Z,86.0
2017-07-11T08:14:05.078Z,85.7
2017-07-11T08:15:06.774Z,85.8
2017-07-11T08:16:08.546Z,85.7
2017-07-11T08:17:10.328Z,85.4
2017-07-11T08:18:12.052Z,85.8
2017-07-11T08:19:13.739Z,85.1
2017-07-11T08:20:15.476Z,85.8
2017-07-11T08:21:17.133Z,85.6
2017-07-11T08:22:18.893Z,85.7
2017-07-11T08:23:20.706Z,85.1
2017-07-11T08:24:22.588Z,84.3
2017-07-11T08:25:24.531Z,84.5
2017-07-11T08:26:26.244Z,84.6
2017-07-11T08:27:28.149Z,84.3
2017-07-11T08:28:29.832Z,84.6
2017-07-11T08:29:31.526Z,84.8
2017-07-11T08:30:33.232Z,84.9
2017-07-11T08:31:35.002Z,84.9
2017-07-11T08:32:36.786Z,85.4
2017-07-11T08:33:38.504Z,84.9
2017-07-11T08:34:40.311Z,84.9
2017-07-11T08:35:42.020Z,84.9
2017-07-11T08:36:43.860Z,84.2
2017-07-11T08:37:45.622Z,84.0
2017-07-11T08:38:47.289Z,84.2
2017-07-11T08:39:49.076Z,84.4
2017-07-11T08:40:50.812Z,84.1
2017-07-11T08:41:52.542Z,84.5
2017-07-11T08:42:54.570Z,83.9
2017-07-11T08:43:56.241Z,84.3
2017-07-11T08:44:57.946Z,84.2
2017-07-11T08:45:59.656Z,84.4
2017-07-11T08:47:01.333Z,84.1
2017-07-11T08:48:03.040Z,84.1
2017-07-11T08:49:04.838Z,84.5
2017-07-11T08:50:06.618Z,83.8
2017-07-11T08:51:08.331Z,83.0
2017-07-11T08:52:10.137Z,83.5
2017-07-11T08:53:11.856Z,82.8
2017-07-11T08:54:13.583Z,82.8
2017-07-11T08:55:15.373Z,83.3
2017-07-11T08:56:17.066Z,84.0
2017-07-11T08:57:18.822Z,83.5
2017-07-11T08:58:20.531Z,84.1
2017-07-11T08:59:22.208Z,82.9
2017-07-11T09:00:24.054Z,82.9
2017-07-11T09:01:25.815Z,82.8
2017-07-11T09:02:27.610Z,83.3
2017-07-11T09:03:29.504Z,82.9
2017-07-11T09:04:31.225Z,83.3
2017-07-11T09:05:33.025Z,83.1
2017-07-11T09:06:34.816Z,82.4
2017-07-11T09:07:36.538Z,82.8
2017-07-11T09:08:38.245Z,82.9
2017-07-11T09:09:40.177Z,82.7
2017-07-11T09:10:41.884Z,83.4
2017-07-11T09:11:43.622Z,83.7
2017-07-11T09:12:45.291Z,84.1
2017-07-11T09:13:47.052Z,83.7
2017-07-11T09:14:48.956Z,83.9
2017-07-11T09:15:50.679Z,83.9
2017-07-11T09:16:52.461Z,83.5
2017-07-11T09:17:54.290Z,83.4
2017-07-11T09:18:56.125Z,82.6
2017-07-11T09:19:57.808Z,82.0
2017-07-11T09:20:59.708Z,82.3
2017-07-11T09:22:01.338Z,81.6
2017-07-11T09:23:03.035Z,81.8
2017-07-11T09:24:04.808Z,81.9
2017-07-11T09:25:06.508Z,81.8
2017-07-11T09:26:08.193Z,81.5
2017-07-11T09:27:10.090Z,81.2
2017-07-11T09:28:11.860Z,81.4
2017-07-11T09:29:13.636Z,80.8
2017-07-11T09:30:15.333Z,80.4
2017-07-11T09:31:17.132Z,80.8
2017-07-11T09:32:18.911Z,80.9
2017-07-11T09:33:20.778Z,81.2
2017-07-11T09:34:22.468Z,80.7
2017-07-11T09:35:24.215Z,81.3
2017-07-11T09:36:25.905Z,81.0
2017-07-11T09:37:27.591Z,80.9
2017-07-11T09:38:29.420Z,81.0
2017-07-11T09:39:31.060Z,81.3
2017-07-11T09:40:32.833Z,81.2
2017-07-11T09:41:34.781Z,81.3
2017-07-11T09:42:36.449Z,81.2
2017-07-11T09:43:38.172Z,80.7
2017-07-11T09:44:39.933Z,80.9
2017-07-11T09:45:42.568Z,81.1
2017-07-11T09:46:44.406Z,81.0
2017-07-11T09:47:46.109Z,80.9
2017-07-11T09:48:47.802Z,80.6
2017-07-11T09:49:49.599Z,80.0
2017-07-11T09:50:51.295Z,79.3
2017-07-11T09:51:53.009Z,80.2
2017-07-11T09:52:54.819Z,79.6
2017-07-11T09:53:56.487Z,79.1
2017-07-11T09:54:58.244Z,79.0
2017-07-11T09:55:59.986Z,79.2
2017-07-11T09:57:01.720Z,80.0
2017-07-11T09:58:03.384Z,79.5
2017-07-11T09:59:05.127Z,79.2
2017-07-11T10:00:06.845Z,79.1
2017-07-11T10:01:08.765Z,79.2
2017-07-11T10:02:10.516Z,79.5
2017-07-11T10:03:12.240Z,79.2
2017-07-11T10:04:13.973Z,79.3
2017-07-11T10:05:15.738Z,78.7
2017-07-11T10:06:17.405Z,78.4
2017-07-11T10:07:19.311Z,78.0
2017-07-11T10:08:21.091Z,77.7
2017-07-11T10:09:22.938Z,77.9
2017-07-11T10:10:24.690Z,77.8
2017-07-11T10:11:26.390Z,77.8
2017-07-11T10:12:28.089Z,77.3
2017-07-11T10:13:30.552Z,77.6
2017-07-11T10:14:32.283Z,77.2
2017-07-11T10:15:33.996Z,77.0
2017-07-11T10:16:35.735Z,76.1
2017-07-11T10:17:37.525Z,75.8
2017-07-11T10:18:39.245Z,76.2
2017-07-11T10:19:40.899Z,76.2
2017-07-11T10:20:42.563Z,76.1
2017-07-11T10:21:44.408Z,76.4
2017-07-11T10:22:46.058Z,76.6
2017-07-11T10:23:47.750Z,77.0
2017-07-11T10:24:49.656Z,75.9
2017-07-11T10:25:51.338Z,75.9
2017-07-11T10:26:53.031Z,75.1
2017-07-11T10:27:54.771Z,74.9
2017-07-11T10:28:56.664Z,74.9
2017-07-11T10:29:58.335Z,75.2
2017-07-11T10:31:00.083Z,74.2
2017-07-11T10:32:01.780Z,74.0
2017-07-11T10:33:03.483Z,73.9
2017-07-11T10:34:05.234Z,74.1
2017-07-11T10:35:06.921Z,74.0
2017-07-11T10:36:08.587Z,74.2
2017-07-11T10:37:10.250Z,73.8
2017-07-11T10:38:11.915Z,74.3
2017-07-11T10:39:13.677Z,74.1
2017-07-11T10:40:15.392Z,74.4
2017-07-11T10:41:17.071Z,73.8
2017-07-11T10:42:18.781Z,73.1
2017-07-11T10:43:20.481Z,72.6
2017-07-11T10:44:22.257Z,72.6
2017-07-11T10:45:24.015Z,72.0
2017-07-11T10:46:25.717Z,71.8
2017-07-11T10:47:27.370Z,71.9
2017-07-11T10:48:29.042Z,70.8
2017-07-11T10:49:30.722Z,70.6
2017-07-11T10:50:32.388Z,70.6
2017-07-11T10:51:34.207Z,70.6
2017-07-11T10:52:35.974Z,70.2
2017-07-11T10:53:37.635Z,70.5
2017-07-11T10:54:39.436Z,70.1
2017-07-11T10:55:41.076Z,69.0
2017-07-11T10:56:42.720Z,69.1
2017-07-11T10:57:44.454Z,68.6
2017-07-11T10:58:46.125Z,68.5
2017-07-11T10:59:47.837Z,68.6
2017-07-11T11:00:49.561Z,68.1
2017-07-11T11:01:51.212Z,68.1
2017-07-11T11:02:52.848Z,68.3
2017-07-11T11:03:54.567Z,66.7
2017-07-11T11:04:56.212Z,66.4
2017-07-11T11:05:57.957Z,65.6
2017-07-11T11:06:59.713Z,65.7
2017-07-11T11:08:01.440Z,64.9
2017-07-11T11:09:03.086Z,65.0
2017-07-11T11:10:04.852Z,64.9
2017-07-11T11:11:06.502Z,65.6
2017-07-11T11:12:08.127Z,65.5
2017-07-11T11:13:11.087Z,65.9
2017-07-11T11:14:13.600Z,65.1
2017-07-11T11:15:15.640Z,64.9
2017-07-11T11:16:17.721Z,63.7
2017-07-11T11:17:19.770Z,63.8
2017-07-11T11:18:21.662Z,63.4
2017-07-11T11:19:23.377Z,64.0
2017-07-11T11:20:25.110Z,63.1
2017-07-11T11:21:26.936Z,62.6
2017-07-11T11:22:28.625Z,62.6
2017-07-11T11:23:30.411Z,62.4
2017-07-11T11:24:33.194Z,62.1
2017-07-11T11:25:34.971Z,62.2
2017-07-11T11:26:36.621Z,62.8
2017-07-11T11:27:38.276Z,63.0
2017-07-11T11:28:39.979Z,63.4
2017-07-11T11:29:41.743Z,63.4
2017-07-11T11:30:43.736Z,63.1
2017-07-11T11:31:45.381Z,62.2
2017-07-11T11:32:47.039Z,62.2
2017-07-11T11:33:48.790Z,61.9
2017-07-11T11:34:50.437Z,61.4
2017-07-11T11:35:52.078Z,60.0
2017-07-11T11:36:53.873Z,60.2
2017-07-11T11:37:55.591Z,59.7
2017-07-11T11:38:57.313Z,59.4
2017-07-11T11:39:59.101Z,58.6
2017-07-11T11:41:00.758Z,58.5
2017-07-11T11:42:02.463Z,59.7
2017-07-11T11:43:04.263Z,59.4
2017-07-11T11:44:05.949Z,57.5
2017-07-11T11:45:07.708Z,56.1
2017-07-11T11:46:09.534Z,56.4
2017-07-11T11:47:11.168Z,56.9
2017-07-11T11:48:12.990Z,57.1
2017-07-11T11:49:14.739Z,56.2
2017-07-11T11:50:16.450Z,55.7
2017-07-11T11:51:18.278Z,56.1
2017-07-11T11:52:20.207Z,55.7
2017-07-11T11:53:21.940Z,55.1
2017-07-11T11:54:23.720Z,54.9
2017-07-11T11:55:25.531Z,54.8
2017-07-11T11:56:27.184Z,54.5
2017-07-11T11:57:29.014Z,53.9
2017-07-11T11:58:30.815Z,53.8
2017-07-11T11:59:32.587Z,52.7
2017-07-11T12:00:34.450Z,52.3
2017-07-11T12:01:36.218Z,52.1
2017-07-11T12:02:38.001Z,53.8
2017-07-11T12:03:39.871Z,54.2
2017-07-11T12:04:41.711Z,53.6
2017-07-11T12:05:43.444Z,52.7
2017-07-11T12:06:45.262Z,54.4
2017-07-11T12:07:46.948Z,53.6
2017-07-11T12:08:48.624Z,52.7
2017-07-11T12:09:50.388Z,52.9
2017-07-11T12:10:52.070Z,52.7
2017-07-11T12:11:53.866Z,52.7
2017-07-11T12:12:55.707Z,52.6
2017-07-11T12:13:57.450Z,52.1
2017-07-11T12:14:59.283Z,51.7
2017-07-11T12:16:01.132Z,52.1
2017-07-11T12:17:02.856Z,51.3
2017-07-11T12:18:04.640Z,51.5
2017-07-11T12:19:06.513Z,52.2
2017-07-11T12:20:09.446Z,51.9
2017-07-11T12:21:11.317Z,51.5
2017-07-11T12:22:13.248Z,51.1
2017-07-11T12:23:15.807Z,51.5
2017-07-11T12:24:17.597Z,50.4
2017-07-11T12:25:19.678Z,50.3
2017-07-11T12:26:21.397Z,50.0
2017-07-11T12:27:23.224Z,50.4
2017-07-11T12:28:24.987Z,50.0
2017-07-11T12:29:26.669Z,50.3
2017-07-11T12:30:28.429Z,50.2
2017-07-11T12:31:30.249Z,49.4
2017-07-11T12:32:31.966Z,48.7
2017-07-11T12:33:33.643Z,49.2
2017-07-11T12:34:35.572Z,47.8
2017-07-11T12:35:37.359Z,47.2
2017-07-11T12:36:39.229Z,47.7
2017-07-11T12:37:40.895Z,47.1
2017-07-11T12:38:42.551Z,46.9
2017-07-11T12:39:44.379Z,47.2
2017-07-11T12:40:46.092Z,48.1
2017-07-11T12:41:47.773Z,47.8
2017-07-11T12:42:49.558Z,46.4
2017-07-11T12:43:51.223Z,46.3
2017-07-11T12:44:52.871Z,45.7
2017-07-11T12:45:54.691Z,44.8
2017-07-11T12:46:56.597Z,44.5
2017-07-11T12:47:58.235Z,44.8
2017-07-11T12:49:00.057Z,45.1
2017-07-11T12:50:01.674Z,44.4
2017-07-11T12:51:03.366Z,44.5
2017-07-11T12:52:05.188Z,46.2
2017-07-11T12:53:06.908Z,45.8
2017-07-11T12:54:08.671Z,46.0
2017-07-11T12:55:10.368Z,43.5
2017-07-11T12:56:12.160Z,42.0
2017-07-11T12:57:14.023Z,41.9
2017-07-11T12:58:15.749Z,40.7
2017-07-11T12:59:17.390Z,39.9
2017-07-11T13:00:19.106Z,40.5
2017-07-11T13:01:20.717Z,40.9
2017-07-11T13:02:22.362Z,41.1
2017-07-11T13:03:24.076Z,40.8
2017-07-11T13:04:25.722Z,41.5
2017-07-11T13:05:27.375Z,41.0
2017-07-11T13:06:29.132Z,40.9
2017-07-11T13:07:30.787Z,40.4
2017-07-11T13:08:32.440Z,40.6
2017-07-11T13:09:34.121Z,41.5
2017-07-11T13:10:35.782Z,41.5
2017-07-11T13:11:37.434Z,40.6
2017-07-11T13:12:39.225Z,41.3
2017-07-11T13:13:40.973Z,40.8
2017-07-11T13:14:42.793Z,40.6
2017-07-11T13:15:44.706Z,41.0
2017-07-11T13:16:46.450Z,40.9
2017-07-11T13:17:48.147Z,41.4
2017-07-11T13:18:49.833Z,42.2
2017-07-11T13:19:51.528Z,41.9
2017-07-11T13:20:53.183Z,42.1
2017-07-11T13:21:54.938Z,41.5
2017-07-11T13:22:56.635Z,41.3
2017-07-11T13:23:58.317Z,41.1
2017-07-11T13:25:00.035Z,40.9
2017-07-11T13:26:01.681Z,41.1
2017-07-11T13:27:03.372Z,41.1
2017-07-11T13:28:05.170Z,42.1
2017-07-11T13:29:08.062Z,43.7
2017-07-11T13:30:09.848Z,42.7
2017-07-11T13:31:11.591Z,42.8
2017-07-11T13:32:13.368Z,43.8
2017-07-11T13:33:15.131Z,44.0
2017-07-11T13:35:26.493Z,43.8
2017-07-11T13:37:37.730Z,43.0
2017-07-11T13:38:39.544Z,43.8
2017-07-11T13:39:41.261Z,43.5
2017-07-11T13:40:42.918Z,43.1
2017-07-11T13:41:44.739Z,42.0
2017-07-11T13:42:46.399Z,42.8
2017-07-11T13:43:48.543Z,43.3